x

Long Island - 30 Nm South Of Islip, Ny (44025) Wave Buoy

2:50am - Mon 31st Aug 2015 All times are EDT. -4 hours from GMT.

  • Sig Wave height 3.6ft
  • Swell Direction
  • Peak Period 5s
  • Average Period 5s
  • Wind
    13mph, 16mph gusts
  • Sea Temp 74°f
  • Air Temp 75°f
  • Sea Pressure 1016.8mb
  • Long Island - 30 Nm South Of Islip, Ny
  • Long Island - 30 Nm South Of Islip, Ny

More Historic Weather Station data

Upgrade to MSW Pro to gain access to the past 30 days of data for over 8000 Wavebouys and Weather Stations around the globe.

Join Pro

Comparision Forecast

View Surf forecast
   
Mon 08/31 2:50am 3.5ft 5s 5s 13 16 mph 1016.8mb 74f 75f
1:50am 3.5ft 5s 5s 16 18 mph 1017.3mb 74f 76f
12:50am 4ft 5s 5s 16 20 mph 1017.4mb 74f 76f
Sun 08/30 11:50pm 4ft 5s 5s 18 22 mph 1017.4mb 74f 76f
10:50pm 4.5ft 5s 5s 20 25 mph 1017.1mb 74f 76f
9:50pm 4.5ft 5s 5s 20 27 mph 1017mb 75f 76f
8:50pm 4ft 10s 5s 18 22 mph 1017.1mb 75f 76f
7:50pm 3.5ft 4s 4s 20 22 mph 1016.5mb 75f 76f
6:50pm 3.5ft 10s 5s 16 18 mph 1016.6mb 75f 76f
5:50pm 3ft 10s 5s 16 18 mph 1016.8mb 75f 76f
4:50pm 2.5ft 10s 5s 13 18 mph 1017.1mb 75f 76f
3:50pm 2.5ft 10s 5s 13
mph
1017.6mb 75f 76f
2:50pm 2.5ft 10s 5s 13 16 mph 1018.4mb 74f 76f
1:50pm 2.5ft 10s 5s 13 16 mph 1018.8mb 74f 75f
12:50pm 2.5ft 11s 5s 11 13 mph 1019.3mb 74f 75f
11:50am 2.5ft 10s 5s 11 13 mph 1019.8mb 74f 75f
10:50am 2.5ft 11s 5s 13 16 mph 1020.1mb 74f 74f
9:50am 3ft 11s 5s 13
mph
1019.9mb 74f 74f
8:50am 3ft 11s 5s 11 13 mph 1019.5mb 74f 74f
7:50am 3.5ft 11s 5s 11 13 mph 1019.4mb 74f 74f
6:50am 3.5ft 11s 5s 11 16 mph 1019.3mb 74f 74f
5:50am 3.5ft 11s 5s 13 16 mph 1018.9mb 74f 74f
4:50am 3.5ft 11s 5s 11 16 mph 1018.9mb 74f 74f
3:50am 3.5ft 10s 5s 11 13 mph 1019.1mb 74f 74f
2:50am 3.5ft 11s 5s 13 16 mph 1019.2mb 74f 74f
1:50am 3.5ft 10s 5s 13 16 mph 1019.6mb 74f 75f
12:50am 3.5ft 11s 5s 16 18 mph 1019.8mb 75f 75f
Sat 08/29 11:50pm 3ft 11s 5s 16 18 mph 1019.7mb 75f 75f
10:50pm 3ft 11s 5s 16 18 mph 1019.8mb 75f 75f
9:50pm 2.5ft 10s 4s 13 16 mph 1019.8mb 75f 75f
8:50pm 2.5ft 10s 5s 16 18 mph 1019.7mb 75f 75f
7:50pm 2.5ft 11s 5s 13 18 mph 1019.7mb 75f 76f
6:50pm 2.5ft 11s 6s 13 16 mph 1019.7mb 76f 76f
5:50pm 2.5ft 11s 7s 13 16 mph 1019.9mb 76f 76f
4:50pm 2.5ft 11s 7s 11 13 mph 1020.4mb 77f 76f
3:50pm 3ft 11s 8s 7 9 mph 1020.8mb 77f 76f
2:50pm 2.5ft 11s 8s 7 9 mph 1021.4mb 77f 75f
1:50pm 2.5ft 11s 7s 4 7 mph 1022.4mb 76f 74f
12:50pm 2.5ft 8s 7s 4 7 mph 1023mb 77f 74f
11:50am 3ft 11s 7s 2 4 mph 1023.4mb 76f 73f
10:50am 2.5ft 9s 7s  -  2 mph 1023.5mb 75f 73f
9:50am 2.5ft 11s 7s 4
mph
1023.2mb 75f 73f
8:50am 3ft 11s 8s 4 7 mph 1023mb 74f 73f
7:50am 3ft 11s 8s 7
mph
1022.8mb 74f 73f
6:50am 2.5ft 11s 8s 7 9 mph 1022.5mb 74f 73f
5:50am 3ft 11s 8s 4 7 mph 1021.8mb 74f 73f
4:50am 3ft 11s 8s 4 7 mph 1021.9mb 74f 73f
3:50am 2.5ft 11s 7s 7 9 mph 1022mb 74f 74f
2:50am 2.5ft 11s 7s 7 9 mph 1022mb 74f 74f
1:50am 2.5ft 11s 7s 7 9 mph 1022.2mb 75f 73f
12:50am 2.5ft 11s 7s 9
mph
1022.5mb 75f 73f
Fri 08/28 11:50pm 2.5ft 11s 8s 7 9 mph 1022.6mb 75f 74f
10:50pm 2.5ft 11s 8s 9 11 mph 1022.5mb 75f 74f
9:50pm 2.5ft 11s 8s 7 9 mph 1022.2mb 75f 73f
8:50pm 2.5ft 11s 8s 7 9 mph 1021.5mb 75f 73f
7:50pm 2.5ft 11s 8s 2 4 mph 1020.9mb 75f 74f
6:50pm 2.5ft 10s 8s  -  2 mph 1020.5mb 76f 75f
5:50pm 2.5ft 11s 7s 4 7 mph 1020.4mb 76f 74f
4:50pm 2.5ft 11s 8s 4 7 mph 1020.4mb 76f 73f
3:50pm 2.5ft 10s 7s 7 9 mph 1020.8mb 76f 72f
2:50pm 2.5ft 9s 7s 7 9 mph 1021.3mb 75f 71f
1:50pm 2.5ft 11s 6s 7 9 mph 1021.6mb 75f 70f
12:50pm 2.5ft 9s 6s 7 9 mph 1021.9mb 75f 70f
11:50am 2.5ft 10s 6s 7 9 mph 1022.3mb 74f 69f
10:50am 3ft 10s 5s 9 11 mph 1022mb 74f 69f
9:50am 3ft 11s 6s 9 11 mph 1021.6mb 74f 68f
8:50am 3ft 11s 6s 11 13 mph 1021mb 74f 68f
7:50am 2.5ft 10s 5s 11 16 mph 1020.8mb 74f 69f
6:50am 2.5ft 9s 5s 11 13 mph 1020.2mb 74f 70f
5:50am 3ft 10s 6s 11 13 mph 1019.6mb 74f 70f
4:50am 3ft 11s 6s 13 16 mph 1019.4mb 74f 70f
3:50am 2.5ft 11s 5s 13 16 mph 1019.5mb 74f 71f
2:50am 2.5ft 9s 6s 11 13 mph 1019.3mb 74f 71f
1:50am 2.5ft 9s 5s 13 16 mph 1019.4mb 75f 72f
12:50am 2.5ft 10s 5s 13 16 mph 1019.7mb 75f 73f
Thu 08/27 11:50pm 2.5ft 9s 5s 13
mph
1019.4mb 75f 73f
10:50pm 2.5ft 10s 5s 13 16 mph 1019.1mb 75f 74f
9:50pm 2.5ft 10s 5s 16
mph
1018.7mb 75f 74f
8:50pm 2.5ft 10s 4s 13 18 mph 1018mb 75f 74f
7:50pm 2ft 11s 5s 13 16 mph 1017.2mb 75f 74f
6:50pm 2ft 10s 5s 13 16 mph 1017mb 75f 75f
5:50pm 2ft 10s 6s 9 11 mph 1016.9mb 75f 74f
4:50pm 2ft 10s 6s 9 11 mph 1016.8mb 75f 74f
3:50pm 2ft 10s 6s 7 9 mph 1017mb 75f 73f
2:50pm 2ft 10s 6s 9 11 mph 1017.3mb 75f 73f
1:50pm 2ft 10s 6s 9 11 mph 1017.6mb 75f 72f
12:50pm 2ft 9s 6s 7 9 mph 1018mb 74f 71f
11:50am 2ft 11s 5s 4 7 mph 1018.4mb 74f 71f
10:50am 2ft 10s 5s 7 9 mph 1018.1mb 74f 70f
9:50am 2ft 8s 5s 9 11 mph 1017.8mb 74f 70f
8:50am 2.5ft 10s 5s 9 11 mph 1017.3mb 74f 71f
7:50am 2.5ft 10s 4s 9 11 mph 1017mb 74f 71f